Time;durP1;ratioP1;P1;durP2;ratioP2;P2;SDS_P1;SDS_P2;PMS_P1;PMS_P2;Temp;Humidity;BMP_temperature;BMP_pressure;BME280_temperature;BME280_humidity;BME280_pressure;Samples;Min_cycle;Max_cycle;Signal;HPM_P1;HPM_P2
2021/09/07 00:01:15;;;;;;;14.13;8.30;;;;;;;;;;4935843;29;20359;-86
2021/09/07 00:03:40;;;;;;;14.98;9.50;;;;;;;;;;4936138;29;20020;-87
2021/09/07 00:06:05;;;;;;;12.23;9.25;;;;;;;;;;4936258;29;20034;-85
2021/09/07 00:08:31;;;;;;;14.50;9.13;;;;;;;;;;4935700;29;20082;-85
2021/09/07 00:10:56;;;;;;;12.82;8.73;;;;;;;;;;4936237;29;20103;-86
2021/09/07 00:13:22;;;;;;;11.73;8.05;;;;;;;;;;4935485;29;20023;-85
2021/09/07 00:15:47;;;;;;;12.55;9.80;;;;;;;;;;4936177;29;20036;-86
2021/09/07 00:18:13;;;;;;;12.18;8.80;;;;;;;;;;4936517;29;20012;-88
2021/09/07 00:20:38;;;;;;;11.52;8.52;;;;;;;;;;4936994;29;20028;-88
2021/09/07 00:23:03;;;;;;;13.85;9.45;;;;;;;;;;4936430;29;20042;-87
2021/09/07 00:25:29;;;;;;;15.52;9.05;;;;;;;;;;4935105;29;20031;-85
2021/09/07 00:27:54;;;;;;;12.75;8.70;;;;;;;;;;4936230;29;20060;-86
2021/09/07 00:30:19;;;;;;;11.52;8.93;;;;;;;;;;4934936;29;20016;-87
2021/09/07 00:32:45;;;;;;;14.50;8.52;;;;;;;;;;4934959;29;20160;-86
2021/09/07 00:35:13;;;;;;;14.25;9.23;;;;;;;;;;4934930;29;20131;-86
2021/09/07 00:37:39;;;;;;;14.23;9.60;;;;;;;;;;4933917;29;20500;-88
2021/09/07 00:40:05;;;;;;;12.98;10.18;;;;;;;;;;4935946;29;20371;-87
2021/09/07 00:42:34;;;;;;;14.23;10.25;;;;;;;;;;4931005;29;20024;-84
2021/09/07 00:45:00;;;;;;;14.65;9.75;;;;;;;;;;4933233;29;20036;-86
2021/09/07 00:47:26;;;;;;;15.35;9.60;;;;;;;;;;4933869;29;20428;-86
2021/09/07 00:49:51;;;;;;;14.00;9.25;;;;;;;;;;4934920;29;20028;-86
2021/09/07 00:52:16;;;;;;;14.07;9.55;;;;;;;;;;4932361;29;20064;-86
2021/09/07 00:54:43;;;;;;;12.30;8.75;;;;;;;;;;4935519;29;20020;-87
2021/09/07 00:57:09;;;;;;;12.68;9.00;;;;;;;;;;4933426;29;20244;-87
2021/09/07 00:59:35;;;;;;;13.40;8.82;;;;;;;;;;4935748;29;20118;-88
2021/09/07 01:02:00;;;;;;;12.52;9.20;;;;;;;;;;4932129;29;20036;-88
2021/09/07 01:04:28;;;;;;;15.50;10.00;;;;;;;;;;4935978;29;20032;-88
2021/09/07 01:06:57;;;;;;;12.85;9.57;;;;;;;;;;4931778;29;20383;-85
2021/09/07 01:09:23;;;;;;;13.13;8.82;;;;;;;;;;4935318;29;20379;-87
2021/09/07 01:11:49;;;;;;;15.43;10.00;;;;;;;;;;4934328;29;20588;-85
2021/09/07 01:14:17;;;;;;;13.57;9.60;;;;;;;;;;4932619;29;20028;-87
2021/09/07 01:16:59;;;;;;;13.25;9.55;;;;;;;;;;4934942;29;20386;-86
2021/09/07 01:19:33;;;;;;;14.85;9.40;;;;;;;;;;4934982;29;20472;-86
2021/09/07 01:22:24;;;;;;;12.63;9.02;;;;;;;;;;4933920;29;20596;-84
2021/09/07 01:24:59;;;;;;;13.77;10.00;;;;;;;;;;4927926;29;20459;-88
2021/09/07 01:27:27;;;;;;;15.68;9.98;;;;;;;;;;4934686;29;20087;-87
2021/09/07 01:30:03;;;;;;;12.07;9.27;;;;;;;;;;4937790;29;20024;-87
2021/09/07 01:32:33;;;;;;;14.52;10.13;;;;;;;;;;4937399;29;20386;-85
2021/09/07 01:34:59;;;;;;;13.38;9.32;;;;;;;;;;4935137;29;20587;-88
2021/09/07 01:37:27;;;;;;;12.32;9.07;;;;;;;;;;4931832;29;20537;-85
2021/09/07 01:40:02;;;;;;;17.77;10.45;;;;;;;;;;4934848;29;20016;-86
2021/09/07 01:42:30;;;;;;;14.35;9.88;;;;;;;;;;4934654;29;20387;-87
2021/09/07 01:44:55;;;;;;;13.57;10.10;;;;;;;;;;4930249;29;20075;-88
2021/09/07 01:47:20;;;;;;;12.93;10.17;;;;;;;;;;4940326;29;20063;-86
2021/09/07 01:49:46;;;;;;;15.95;10.32;;;;;;;;;;4934792;29;20765;-86
2021/09/07 01:52:13;;;;;;;14.13;9.25;;;;;;;;;;4934095;29;20031;-88
2021/09/07 01:54:48;;;;;;;16.83;10.02;;;;;;;;;;4934386;29;20055;-85
2021/09/07 01:57:14;;;;;;;12.65;9.25;;;;;;;;;;4928752;29;20019;-86
2021/09/07 01:59:39;;;;;;;16.10;9.63;;;;;;;;;;4932601;29;20038;-86
2021/09/07 02:02:04;;;;;;;14.07;9.00;;;;;;;;;;4932104;29;20031;-86
2021/09/07 02:04:30;;;;;;;15.02;9.65;;;;;;;;;;4931961;29;20462;-86
2021/09/07 02:06:55;;;;;;;16.05;10.25;;;;;;;;;;4933414;29;20042;-87
2021/09/07 02:09:21;;;;;;;16.23;9.85;;;;;;;;;;4933561;29;20028;-89
2021/09/07 02:11:46;;;;;;;14.10;9.43;;;;;;;;;;4934224;29;20024;-86
2021/09/07 02:14:11;;;;;;;15.73;9.82;;;;;;;;;;4933826;29;20024;-87
2021/09/07 02:16:37;;;;;;;14.73;9.80;;;;;;;;;;4933569;29;20095;-87
2021/09/07 02:19:02;;;;;;;14.73;10.68;;;;;;;;;;4933840;29;20041;-88
2021/09/07 02:21:28;;;;;;;15.30;9.80;;;;;;;;;;4932572;29;20095;-87
2021/09/07 02:23:53;;;;;;;12.77;8.77;;;;;;;;;;4930338;29;20024;-87
2021/09/07 02:26:18;;;;;;;15.65;9.82;;;;;;;;;;4933046;29;20267;-87
2021/09/07 02:28:44;;;;;;;16.38;9.55;;;;;;;;;;4932859;29;20047;-87
2021/09/07 02:31:09;;;;;;;15.23;10.63;;;;;;;;;;4932200;29;20471;-87
2021/09/07 02:33:34;;;;;;;14.63;10.82;;;;;;;;;;4929398;29;20023;-86
2021/09/07 02:36:00;;;;;;;13.90;10.30;;;;;;;;;;4932256;29;20107;-85
2021/09/07 02:38:25;;;;;;;14.68;10.07;;;;;;;;;;4930672;29;20615;-87
2021/09/07 02:40:51;;;;;;;14.35;9.95;;;;;;;;;;4938631;29;20028;-87
2021/09/07 02:43:16;;;;;;;14.10;9.68;;;;;;;;;;4927497;29;20035;-86
2021/09/07 02:45:42;;;;;;;13.63;9.80;;;;;;;;;;4931658;29;20051;-87
2021/09/07 02:48:07;;;;;;;11.90;9.30;;;;;;;;;;4931855;29;20034;-87
2021/09/07 02:50:33;;;;;;;15.80;10.35;;;;;;;;;;4932859;29;20102;-87
2021/09/07 02:52:58;;;;;;;12.32;9.05;;;;;;;;;;4931804;29;20024;-87
2021/09/07 02:55:24;;;;;;;13.52;10.43;;;;;;;;;;4932630;29;20024;-86
2021/09/07 02:57:50;;;;;;;13.68;9.35;;;;;;;;;;4932773;29;20387;-86
2021/09/07 03:00:15;;;;;;;15.55;10.75;;;;;;;;;;4932513;29;20018;-86
2021/09/07 03:02:40;;;;;;;11.80;9.30;;;;;;;;;;4932176;29;20051;-87
2021/09/07 03:05:06;;;;;;;14.45;9.82;;;;;;;;;;4929779;29;20070;-86
2021/09/07 03:07:32;;;;;;;16.23;10.60;;;;;;;;;;4932324;29;20035;-84
2021/09/07 03:09:57;;;;;;;13.70;9.23;;;;;;;;;;4931662;29;20019;-86
2021/09/07 03:12:22;;;;;;;14.40;10.50;;;;;;;;;;4931796;29;20648;-85
2021/09/07 03:14:48;;;;;;;13.20;8.80;;;;;;;;;;4931743;29;20078;-87
2021/09/07 03:17:13;;;;;;;12.30;8.93;;;;;;;;;;4932529;29;20070;-87
2021/09/07 03:19:40;;;;;;;14.32;9.68;;;;;;;;;;4932043;29;20263;-87
2021/09/07 03:22:05;;;;;;;15.75;9.80;;;;;;;;;;4928462;29;20390;-86
2021/09/07 03:24:31;;;;;;;12.80;10.13;;;;;;;;;;4930957;29;20114;-86
2021/09/07 03:26:56;;;;;;;13.40;10.10;;;;;;;;;;4931033;29;20035;-87
2021/09/07 03:29:21;;;;;;;17.10;9.43;;;;;;;;;;4932490;29;20034;-85
2021/09/07 03:31:46;;;;;;;13.15;10.02;;;;;;;;;;4931897;29;20287;-87
2021/09/07 03:34:12;;;;;;;11.60;9.40;;;;;;;;;;4930721;29;20024;-87
2021/09/07 03:36:37;;;;;;;13.70;9.55;;;;;;;;;;4933224;29;20012;-89
2021/09/07 03:39:03;;;;;;;14.15;9.25;;;;;;;;;;4933480;29;20027;-87
2021/09/07 03:41:28;;;;;;;11.90;9.25;;;;;;;;;;4931664;29;20019;-88
2021/09/07 03:43:54;;;;;;;14.38;10.05;;;;;;;;;;4933351;29;20063;-87
2021/09/07 03:46:19;;;;;;;15.02;9.60;;;;;;;;;;4932893;29;20561;-86
2021/09/07 03:48:44;;;;;;;14.05;9.93;;;;;;;;;;4933761;29;20040;-88
2021/09/07 03:51:10;;;;;;;14.35;9.73;;;;;;;;;;4932392;29;20024;-88
2021/09/07 03:53:35;;;;;;;12.68;8.93;;;;;;;;;;4929800;29;20071;-86
2021/09/07 03:56:01;;;;;;;14.48;10.13;;;;;;;;;;4932091;29;20106;-86
2021/09/07 03:58:26;;;;;;;11.80;9.15;;;;;;;;;;4932579;29;20288;-87
2021/09/07 04:00:53;;;;;;;15.52;10.27;;;;;;;;;;4931729;29;20027;-87
2021/09/07 04:03:19;;;;;;;16.60;10.38;;;;;;;;;;4932500;29;20426;-86
2021/09/07 04:05:44;;;;;;;13.02;9.13;;;;;;;;;;4931993;29;20020;-86
2021/09/07 04:08:10;;;;;;;11.68;8.57;;;;;;;;;;4932102;29;20490;-87
2021/09/07 04:10:39;;;;;;;15.35;10.07;;;;;;;;;;4932911;29;20026;-88
2021/09/07 04:13:04;;;;;;;14.63;10.48;;;;;;;;;;4933096;29;20395;-87
2021/09/07 04:15:30;;;;;;;14.50;10.40;;;;;;;;;;4934528;29;20012;-86
2021/09/07 04:17:55;;;;;;;16.17;9.85;;;;;;;;;;4932966;29;20024;-87
2021/09/07 04:20:21;;;;;;;14.77;10.73;;;;;;;;;;4934492;29;20489;-87
2021/09/07 04:22:46;;;;;;;14.75;10.85;;;;;;;;;;4934613;29;20031;-87
2021/09/07 04:25:12;;;;;;;13.38;9.85;;;;;;;;;;4935269;29;20577;-87
2021/09/07 04:27:37;;;;;;;13.95;9.52;;;;;;;;;;4935086;29;20493;-86
2021/09/07 04:30:06;;;;;;;13.63;9.10;;;;;;;;;;4933842;29;20086;-87
2021/09/07 04:32:32;;;;;;;13.45;9.98;;;;;;;;;;4932288;29;20047;-87
2021/09/07 04:34:57;;;;;;;13.68;9.95;;;;;;;;;;4934808;29;20133;-86
2021/09/07 04:37:22;;;;;;;13.05;9.98;;;;;;;;;;4934912;29;20078;-87
2021/09/07 04:39:50;;;;;;;14.57;10.90;;;;;;;;;;4934934;29;20032;-87
2021/09/07 04:42:15;;;;;;;15.75;10.20;;;;;;;;;;4932082;29;20395;-87
2021/09/07 04:44:40;;;;;;;17.50;11.20;;;;;;;;;;4933658;29;20023;-87
2021/09/07 04:47:06;;;;;;;15.55;10.20;;;;;;;;;;4933600;29;20122;-85
2021/09/07 04:49:31;;;;;;;14.30;10.15;;;;;;;;;;4934815;29;20066;-86
2021/09/07 04:51:57;;;;;;;14.20;9.52;;;;;;;;;;4936126;29;20027;-87
2021/09/07 04:54:22;;;;;;;13.25;9.40;;;;;;;;;;4939983;29;20038;-88
2021/09/07 04:56:47;;;;;;;12.30;9.73;;;;;;;;;;4935583;29;20020;-87
2021/09/07 04:59:13;;;;;;;14.38;9.40;;;;;;;;;;4936166;29;20016;-92
2021/09/07 05:01:38;;;;;;;16.38;10.27;;;;;;;;;;4936468;29;20032;-90
2021/09/07 05:04:04;;;;;;;16.67;11.25;;;;;;;;;;4938444;29;20079;-87
2021/09/07 05:06:29;;;;;;;15.40;10.63;;;;;;;;;;4933240;29;20115;-87
2021/09/07 05:08:54;;;;;;;15.35;11.13;;;;;;;;;;4933348;29;20502;-86
2021/09/07 05:11:19;;;;;;;15.60;11.03;;;;;;;;;;4931446;29;20479;-86
2021/09/07 05:13:45;;;;;;;14.40;9.63;;;;;;;;;;4935041;29;20312;-88
2021/09/07 05:16:10;;;;;;;16.08;10.90;;;;;;;;;;4935429;29;20027;-88
2021/09/07 05:18:36;;;;;;;14.13;9.70;;;;;;;;;;4935271;29;20051;-87
2021/09/07 05:21:01;;;;;;;15.57;10.65;;;;;;;;;;4932884;29;20035;-86
2021/09/07 05:23:30;;;;;;;18.00;12.20;;;;;;;;;;4934620;29;20035;-86
2021/09/07 05:25:55;;;;;;;13.83;10.20;;;;;;;;;;4933302;29;20031;-84
2021/09/07 05:28:21;;;;;;;16.80;11.07;;;;;;;;;;4939423;29;20434;-85
2021/09/07 05:30:46;;;;;;;15.53;10.27;;;;;;;;;;4933191;29;20027;-84
2021/09/07 05:33:12;;;;;;;13.93;10.70;;;;;;;;;;4933413;29;20267;-84
2021/09/07 05:35:37;;;;;;;16.30;10.65;;;;;;;;;;4933577;29;20028;-85
2021/09/07 05:38:04;;;;;;;13.90;10.27;;;;;;;;;;4933506;29;20024;-83
2021/09/07 05:40:30;;;;;;;15.60;10.95;;;;;;;;;;4933520;29;20490;-84
2021/09/07 05:42:55;;;;;;;16.97;10.80;;;;;;;;;;4931011;29;20119;-83
2021/09/07 05:45:20;;;;;;;13.88;10.15;;;;;;;;;;4933219;29;20770;-85
2021/09/07 05:47:46;;;;;;;14.10;9.65;;;;;;;;;;4932703;29;20019;-86
2021/09/07 05:50:14;;;;;;;15.23;11.23;;;;;;;;;;4931461;29;20482;-85
2021/09/07 05:52:39;;;;;;;14.05;10.25;;;;;;;;;;4932084;29;20027;-85
2021/09/07 05:55:05;;;;;;;14.30;10.05;;;;;;;;;;4931508;29;20374;-83
2021/09/07 05:57:30;;;;;;;15.48;10.23;;;;;;;;;;4932205;29;20068;-84
2021/09/07 05:59:55;;;;;;;17.25;10.80;;;;;;;;;;4930075;29;20034;-84
2021/09/07 06:02:21;;;;;;;15.27;10.27;;;;;;;;;;4933787;29;20037;-91
2021/09/07 06:04:47;;;;;;;16.65;9.77;;;;;;;;;;4935736;29;20110;-87
2021/09/07 06:07:12;;;;;;;19.80;10.90;;;;;;;;;;4933267;29;20511;-87
2021/09/07 06:09:38;;;;;;;14.70;10.65;;;;;;;;;;4933250;29;20087;-85
2021/09/07 06:12:06;;;;;;;14.90;10.43;;;;;;;;;;4931086;29;20120;-89
2021/09/07 06:14:33;;;;;;;13.73;11.25;;;;;;;;;;4929849;29;20034;-87
2021/09/07 06:16:58;;;;;;;15.02;10.63;;;;;;;;;;4930012;29;20087;-86
2021/09/07 06:19:25;;;;;;;15.30;10.27;;;;;;;;;;4932600;29;20022;-81
2021/09/07 06:21:50;;;;;;;13.65;10.82;;;;;;;;;;4914690;29;20037;-82
2021/09/07 06:24:16;;;;;;;15.93;10.63;;;;;;;;;;4931419;29;20123;-82
2021/09/07 06:26:41;;;;;;;13.63;9.00;;;;;;;;;;4930478;29;20475;-83
2021/09/07 06:29:06;;;;;;;14.73;10.47;;;;;;;;;;4928852;29;20036;-84
2021/09/07 06:31:32;;;;;;;13.95;10.60;;;;;;;;;;4932241;29;20298;-84
2021/09/07 06:33:57;;;;;;;17.42;10.95;;;;;;;;;;4929760;29;20427;-84
2021/09/07 06:36:22;;;;;;;17.05;10.90;;;;;;;;;;4930314;29;20083;-83
2021/09/07 06:38:47;;;;;;;16.87;10.90;;;;;;;;;;4933628;29;20064;-82
2021/09/07 06:41:13;;;;;;;18.57;10.30;;;;;;;;;;4941349;28;20378;-83
2021/09/07 06:43:38;;;;;;;15.90;10.55;;;;;;;;;;4937086;28;20262;-83
2021/09/07 06:46:04;;;;;;;15.37;10.80;;;;;;;;;;4935138;29;20048;-84
2021/09/07 06:48:29;;;;;;;17.90;12.73;;;;;;;;;;4929330;29;20687;-82
2021/09/07 06:50:54;;;;;;;25.92;18.83;;;;;;;;;;4930187;29;20061;-82
2021/09/07 06:53:19;;;;;;;22.45;18.50;;;;;;;;;;4931980;29;20070;-82
2021/09/07 06:55:45;;;;;;;13.32;10.82;;;;;;;;;;4932376;29;20015;-84
2021/09/07 06:58:10;;;;;;;13.60;10.40;;;;;;;;;;4931228;29;20106;-82
2021/09/07 07:00:35;;;;;;;16.87;10.83;;;;;;;;;;4931736;29;20080;-83
2021/09/07 07:03:01;;;;;;;19.80;10.23;;;;;;;;;;4931286;29;20271;-82
2021/09/07 07:05:26;;;;;;;17.52;11.30;;;;;;;;;;4929990;29;20268;-82
2021/09/07 07:07:52;;;;;;;15.77;11.10;;;;;;;;;;4931712;29;20415;-82
2021/09/07 07:10:17;;;;;;;16.25;10.18;;;;;;;;;;4932308;29;20568;-82
2021/09/07 07:12:42;;;;;;;14.07;10.48;;;;;;;;;;4930662;29;20027;-81
2021/09/07 07:15:08;;;;;;;16.85;9.60;;;;;;;;;;4931169;29;20546;-83
2021/09/07 07:17:33;;;;;;;15.25;9.48;;;;;;;;;;4929399;29;20016;-86
2021/09/07 07:19:59;;;;;;;17.27;10.52;;;;;;;;;;4926726;29;20024;-82
2021/09/07 07:22:25;;;;;;;14.45;10.38;;;;;;;;;;4931642;29;20031;-82
2021/09/07 07:24:51;;;;;;;17.70;9.95;;;;;;;;;;4931695;29;20386;-83
2021/09/07 07:27:16;;;;;;;13.98;10.80;;;;;;;;;;4931068;29;20026;-81
2021/09/07 07:29:41;;;;;;;17.23;9.90;;;;;;;;;;4931090;29;20079;-81
2021/09/07 07:32:07;;;;;;;18.42;9.63;;;;;;;;;;4926620;29;20036;-81
2021/09/07 07:34:32;;;;;;;27.08;20.98;;;;;;;;;;4931127;29;20468;-82
2021/09/07 07:37:00;;;;;;;26.13;21.08;;;;;;;;;;4931305;29;20030;-82
2021/09/07 07:39:25;;;;;;;17.58;11.82;;;;;;;;;;4930741;29;20078;-82
2021/09/07 07:41:51;;;;;;;19.73;11.13;;;;;;;;;;4930758;29;20407;-82
2021/09/07 07:44:16;;;;;;;15.52;11.43;;;;;;;;;;4930147;29;20032;-84
2021/09/07 07:46:41;;;;;;;17.83;11.30;;;;;;;;;;4926287;29;20127;-83
2021/09/07 07:49:07;;;;;;;16.67;10.73;;;;;;;;;;4928542;29;20030;-85
2021/09/07 07:51:32;;;;;;;16.25;10.60;;;;;;;;;;4931215;29;20115;-85
2021/09/07 07:53:58;;;;;;;17.90;9.70;;;;;;;;;;4929836;29;20483;-84
2021/09/07 07:56:23;;;;;;;19.67;9.63;;;;;;;;;;4932049;29;20040;-84
2021/09/07 07:58:48;;;;;;;13.52;9.60;;;;;;;;;;4934367;29;20023;-84
2021/09/07 08:01:14;;;;;;;16.13;9.50;;;;;;;;;;4934012;29;20038;-84
2021/09/07 08:03:45;;;;;;;16.10;10.13;;;;;;;;;;4933809;29;20035;-84
2021/09/07 08:06:10;;;;;;;18.60;10.80;;;;;;;;;;4933351;29;20584;-84
2021/09/07 08:08:36;;;;;;;15.68;9.48;;;;;;;;;;4934366;29;20035;-84
2021/09/07 08:11:01;;;;;;;14.48;8.95;;;;;;;;;;4935030;29;20101;-83
2021/09/07 08:13:26;;;;;;;13.70;8.80;;;;;;;;;;4932791;29;20012;-82
2021/09/07 08:15:52;;;;;;;15.60;9.05;;;;;;;;;;4934538;29;20023;-83
2021/09/07 08:18:17;;;;;;;11.57;8.75;;;;;;;;;;4934825;29;20106;-85
2021/09/07 08:20:43;;;;;;;15.88;9.85;;;;;;;;;;4934499;29;20020;-85
2021/09/07 08:23:08;;;;;;;15.40;9.07;;;;;;;;;;4936414;29;20031;-86
2021/09/07 08:25:34;;;;;;;12.75;9.07;;;;;;;;;;4935069;29;20023;-85
2021/09/07 08:27:59;;;;;;;15.00;8.85;;;;;;;;;;4937289;29;20023;-84
2021/09/07 08:30:25;;;;;;;14.80;9.23;;;;;;;;;;4936069;29;20031;-84
2021/09/07 08:32:50;;;;;;;31.88;27.52;;;;;;;;;;4934407;29;20062;-84
2021/09/07 08:35:15;;;;;;;14.02;10.13;;;;;;;;;;4934940;29;20050;-84
2021/09/07 08:37:41;;;;;;;15.00;9.07;;;;;;;;;;4933154;29;20023;-84
2021/09/07 08:40:07;;;;;;;12.95;8.15;;;;;;;;;;4932436;29;20083;-82
2021/09/07 08:42:33;;;;;;;12.20;8.18;;;;;;;;;;4932549;29;20032;-84
2021/09/07 08:44:59;;;;;;;11.02;8.07;;;;;;;;;;4933503;29;20062;-85
2021/09/07 08:47:24;;;;;;;13.68;8.23;;;;;;;;;;4933107;29;20767;-85
2021/09/07 08:49:50;;;;;;;13.23;7.65;;;;;;;;;;4933193;29;20036;-82
2021/09/07 08:52:18;;;;;;;10.40;7.53;;;;;;;;;;4932156;29;20050;-83
2021/09/07 08:54:46;;;;;;;13.52;8.70;;;;;;;;;;4934335;29;20379;-91
2021/09/07 08:57:11;;;;;;;12.00;8.95;;;;;;;;;;4934265;29;20541;-81
2021/09/07 08:59:37;;;;;;;14.13;8.13;;;;;;;;;;4931814;29;20043;-86
2021/09/07 09:02:12;;;;;;;12.73;8.48;;;;;;;;;;4932982;29;20495;-83
2021/09/07 09:04:38;;;;;;;12.93;8.55;;;;;;;;;;4931668;29;20086;-83
2021/09/07 09:07:03;;;;;;;11.35;7.82;;;;;;;;;;4933649;29;20495;-86
2021/09/07 09:09:38;;;;;;;10.35;7.53;;;;;;;;;;4934299;29;20023;-85
2021/09/07 09:12:05;;;;;;;12.88;7.97;;;;;;;;;;4935031;29;20387;-87
2021/09/07 09:14:31;;;;;;;10.02;7.75;;;;;;;;;;4931708;29;20616;-87
2021/09/07 09:16:56;;;;;;;14.60;7.93;;;;;;;;;;4930650;29;20031;-85
2021/09/07 09:19:21;;;;;;;11.27;7.25;;;;;;;;;;4934173;29;20023;-86
2021/09/07 09:21:50;;;;;;;11.27;7.90;;;;;;;;;;4932514;29;20020;-87
2021/09/07 09:24:19;;;;;;;12.75;7.65;;;;;;;;;;4948656;29;20360;-86
2021/09/07 09:26:50;;;;;;;12.38;7.82;;;;;;;;;;4934208;29;20387;-86
2021/09/07 09:29:29;;;;;;;11.40;7.53;;;;;;;;;;4930766;29;20038;-84
2021/09/07 09:31:54;;;;;;;;;;;;;;;;;;4931128;29;20504;-83
2021/09/07 09:34:19;;;;;;;11.07;7.43;;;;;;;;;;4932408;29;19953;-85
2021/09/07 09:36:53;;;;;;;12.40;7.75;;;;;;;;;;4933846;29;20019;-86
2021/09/07 09:39:48;;;;;;;10.27;6.85;;;;;;;;;;4936135;29;20491;-87
2021/09/07 09:42:43;;;;;;;11.27;7.93;;;;;;;;;;4942674;29;20403;-88
2021/09/07 09:45:09;;;;;;;11.18;7.50;;;;;;;;;;4920504;29;20373;-86
2021/09/07 09:47:35;;;;;;;13.50;8.15;;;;;;;;;;4934119;29;20047;-85
2021/09/07 09:50:02;;;;;;;14.57;7.65;;;;;;;;;;4934915;29;20027;-86
2021/09/07 09:52:34;;;;;;;11.75;7.38;;;;;;;;;;4934235;29;20390;-86
2021/09/07 09:54:59;;;;;;;12.98;8.20;;;;;;;;;;4936277;29;20103;-86
2021/09/07 09:57:25;;;;;;;11.05;7.90;;;;;;;;;;4934634;29;20036;-84
2021/09/07 09:59:50;;;;;;;20.60;18.40;;;;;;;;;;4934350;29;20023;-85
2021/09/07 10:02:16;;;;;;;15.13;9.63;;;;;;;;;;4935055;29;20027;-85
2021/09/07 10:04:42;;;;;;;12.73;8.07;;;;;;;;;;4936138;29;20030;-87
2021/09/07 10:07:07;;;;;;;15.95;8.75;;;;;;;;;;4938133;29;20034;-87
2021/09/07 10:09:41;;;;;;;14.90;8.40;;;;;;;;;;4920152;29;20360;-88
2021/09/07 10:12:39;;;;;;;;;;;;;;;;;;;;;
2021/09/07 10:15:29;;;;;;;8.73;6.85;;;;;;;;;;4937041;29;20619;-88
2021/09/07 10:18:29;;;;;;;10.60;7.70;;;;;;;;;;4935992;29;20028;-87
2021/09/07 10:21:05;;;;;;;8.90;7.18;;;;;;;;;;4932923;29;20284;-87
2021/09/07 10:26:14;;;;;;;11.73;7.47;;;;;;;;;;4936588;29;20035;-86
2021/09/07 10:28:42;;;;;;;11.82;8.15;;;;;;;;;;4935438;29;20379;-87
2021/09/07 10:31:08;;;;;;;10.15;7.75;;;;;;;;;;4934102;29;20042;-83
2021/09/07 10:33:42;;;;;;;9.32;6.78;;;;;;;;;;4932623;29;20044;-84
2021/09/07 10:36:11;;;;;;;10.20;6.97;;;;;;;;;;4934603;29;20443;-85
2021/09/07 10:38:38;;;;;;;8.27;6.57;;;;;;;;;;4932648;29;20415;-89
2021/09/07 10:41:04;;;;;;;11.07;7.65;;;;;;;;;;4936297;29;20226;-87
2021/09/07 10:43:54;;;;;;;13.75;8.10;;;;;;;;;;4935089;29;20019;-86
2021/09/07 10:46:39;;;;;;;10.68;8.13;;;;;;;;;;4932441;29;20115;-85
2021/09/07 10:49:19;;;;;;;10.40;7.03;;;;;;;;;;4931338;29;20443;-83
2021/09/07 10:52:03;;;;;;;9.38;7.60;;;;;;;;;;4933452;29;20023;-85
2021/09/07 10:54:28;;;;;;;8.57;6.72;;;;;;;;;;4931825;29;20168;-84
2021/09/07 10:56:56;;;;;;;9.38;7.07;;;;;;;;;;4930347;29;20114;-88
2021/09/07 10:59:40;;;;;;;8.37;6.77;;;;;;;;;;4929956;29;20387;-83
2021/09/07 11:02:24;;;;;;;9.93;7.07;;;;;;;;;;4928219;29;20275;-87
2021/09/07 11:04:52;;;;;;;9.95;7.38;;;;;;;;;;4929020;29;20035;-87
2021/09/07 11:07:37;;;;;;;12.03;7.30;;;;;;;;;;4933778;29;20027;-88
2021/09/07 11:10:03;;;;;;;8.95;7.15;;;;;;;;;;4931510;29;20020;-88
2021/09/07 11:12:32;;;;;;;7.60;6.57;;;;;;;;;;4933755;29;20110;-86
2021/09/07 11:15:04;;;;;;;12.77;7.40;;;;;;;;;;4929816;29;20110;-87
2021/09/07 11:17:29;;;;;;;9.23;6.75;;;;;;;;;;4932186;29;20024;-85
2021/09/07 11:19:58;;;;;;;8.85;6.45;;;;;;;;;;4932451;29;20490;-86
2021/09/07 11:22:23;;;;;;;;;;;;;;;;;;4932465;29;20142;-87
2021/09/07 11:25:00;;;;;;;8.65;6.60;;;;;;;;;;4931902;29;19911;-86
2021/09/07 11:27:25;;;;;;;9.88;6.57;;;;;;;;;;4932145;29;20672;-87
2021/09/07 11:29:50;;;;;;;9.10;6.75;;;;;;;;;;4932945;29;20035;-85
2021/09/07 11:32:21;;;;;;;8.68;6.68;;;;;;;;;;4935186;29;20023;-89
2021/09/07 11:35:05;;;;;;;10.80;7.00;;;;;;;;;;4934981;29;20023;-85
2021/09/07 11:37:31;;;;;;;9.25;6.00;;;;;;;;;;4933404;29;20364;-86
2021/09/07 11:40:09;;;;;;;10.00;7.28;;;;;;;;;;4935639;29;20059;-85
2021/09/07 11:42:50;;;;;;;9.35;6.05;;;;;;;;;;4933556;29;20493;-86
2021/09/07 11:45:24;;;;;;;9.70;7.25;;;;;;;;;;4932910;29;20028;-85
2021/09/07 11:47:49;;;;;;;8.38;6.65;;;;;;;;;;4939552;29;20379;-86
2021/09/07 11:50:22;;;;;;;9.85;6.45;;;;;;;;;;4937639;29;20036;-86
2021/09/07 11:52:48;;;;;;;8.57;7.18;;;;;;;;;;4938533;29;20504;-84
2021/09/07 11:55:32;;;;;;;8.90;6.70;;;;;;;;;;4930269;29;20426;-84
2021/09/07 11:57:57;;;;;;;10.43;6.97;;;;;;;;;;4933642;29;20386;-83
2021/09/07 12:00:22;;;;;;;8.30;6.37;;;;;;;;;;4931571;29;20026;-84
2021/09/07 12:03:08;;;;;;;8.15;6.13;;;;;;;;;;4933049;29;20319;-84
2021/09/07 12:05:52;;;;;;;8.65;6.35;;;;;;;;;;4932158;29;20688;-84
2021/09/07 12:08:18;;;;;;;9.18;6.50;;;;;;;;;;4934233;29;20486;-86
2021/09/07 12:10:53;;;;;;;12.82;9.57;;;;;;;;;;4937396;29;20055;-85
2021/09/07 12:13:19;;;;;;;9.13;7.50;;;;;;;;;;4934786;29;20509;-84
2021/09/07 12:15:44;;;;;;;9.27;7.53;;;;;;;;;;4932950;29;20557;-84
2021/09/07 12:18:23;;;;;;;9.63;6.40;;;;;;;;;;4932496;29;20028;-85
2021/09/07 12:20:49;;;;;;;9.77;6.43;;;;;;;;;;4934714;29;20387;-84
2021/09/07 12:23:29;;;;;;;8.98;6.80;;;;;;;;;;4933875;29;20024;-85
2021/09/07 12:25:54;;;;;;;10.57;7.47;;;;;;;;;;4934042;29;20451;-84
2021/09/07 12:28:20;;;;;;;9.15;6.78;;;;;;;;;;4931460;29;20160;-85
2021/09/07 12:30:45;;;;;;;8.25;6.63;;;;;;;;;;4930007;29;20102;-86
2021/09/07 12:33:17;;;;;;;11.00;6.90;;;;;;;;;;4931480;29;20024;-84
2021/09/07 12:35:53;;;;;;;9.80;7.03;;;;;;;;;;4933139;29;20111;-85
2021/09/07 12:38:22;;;;;;;10.70;7.22;;;;;;;;;;4934578;29;20609;-84
2021/09/07 12:40:47;;;;;;;;;;;;;;;;;;4934109;29;20019;-87
2021/09/07 12:43:17;;;;;;;11.03;6.90;;;;;;;;;;4934315;29;19911;-86
2021/09/07 12:45:43;;;;;;;10.27;7.60;;;;;;;;;;4933272;29;20398;-86
2021/09/07 12:48:09;;;;;;;10.00;7.38;;;;;;;;;;4933676;29;20102;-86
2021/09/07 12:50:34;;;;;;;7.78;6.55;;;;;;;;;;4930296;29;20111;-86
2021/09/07 12:53:00;;;;;;;8.77;6.85;;;;;;;;;;4933020;29;20114;-85
2021/09/07 12:55:26;;;;;;;9.05;6.68;;;;;;;;;;4933165;29;20482;-84
2021/09/07 12:57:51;;;;;;;10.05;6.82;;;;;;;;;;4932991;29;20019;-85
2021/09/07 13:00:17;;;;;;;12.10;6.50;;;;;;;;;;4934247;29;20019;-85
2021/09/07 13:02:42;;;;;;;8.50;6.57;;;;;;;;;;4931995;29;20118;-85
2021/09/07 13:05:07;;;;;;;8.90;7.05;;;;;;;;;;4932770;29;20279;-83
2021/09/07 13:07:33;;;;;;;10.02;7.40;;;;;;;;;;4929117;29;20059;-84
2021/09/07 13:09:58;;;;;;;9.45;6.88;;;;;;;;;;4934114;29;20019;-87
2021/09/07 13:12:23;;;;;;;12.23;7.00;;;;;;;;;;4934136;29;20027;-82
2021/09/07 13:14:49;;;;;;;9.73;6.83;;;;;;;;;;4934318;29;20035;-85
2021/09/07 13:17:14;;;;;;;10.35;8.02;;;;;;;;;;4931611;29;20035;-84
2021/09/07 13:19:40;;;;;;;10.07;6.88;;;;;;;;;;4932101;29;20039;-83
2021/09/07 13:22:06;;;;;;;12.50;7.22;;;;;;;;;;4912114;29;20127;-84
2021/09/07 13:24:32;;;;;;;8.55;6.57;;;;;;;;;;4934183;29;20062;-83
2021/09/07 13:26:58;;;;;;;9.02;7.03;;;;;;;;;;4931934;29;20055;-81
2021/09/07 13:29:23;;;;;;;11.70;9.10;;;;;;;;;;4931376;29;20028;-85
2021/09/07 13:31:49;;;;;;;10.05;7.53;;;;;;;;;;4930886;29;20016;-86
2021/09/07 13:34:14;;;;;;;8.50;6.65;;;;;;;;;;4930115;29;20083;-82
2021/09/07 13:36:39;;;;;;;10.37;7.23;;;;;;;;;;4933114;29;20024;-85
2021/09/07 13:39:05;;;;;;;9.48;6.60;;;;;;;;;;4928496;29;20276;-85
2021/09/07 13:41:30;;;;;;;8.90;6.83;;;;;;;;;;4932411;29;20083;-87
2021/09/07 13:43:56;;;;;;;10.82;7.75;;;;;;;;;;4931408;29;20263;-85
2021/09/07 13:46:21;;;;;;;11.05;6.85;;;;;;;;;;4932239;29;20047;-84
2021/09/07 13:48:47;;;;;;;10.00;7.55;;;;;;;;;;4930067;29;20028;-86
2021/09/07 13:51:12;;;;;;;11.55;7.22;;;;;;;;;;4932121;29;20055;-83
2021/09/07 13:53:38;;;;;;;14.93;12.55;;;;;;;;;;4932931;29;21380;-85
2021/09/07 13:56:03;;;;;;;12.05;8.35;;;;;;;;;;4934553;29;20411;-83
2021/09/07 13:58:28;;;;;;;9.32;6.75;;;;;;;;;;4924168;29;20023;-84
2021/09/07 14:00:54;;;;;;;8.60;6.50;;;;;;;;;;4929105;29;20062;-84
2021/09/07 14:03:19;;;;;;;11.00;6.82;;;;;;;;;;4932104;29;20461;-86
2021/09/07 14:05:45;;;;;;;10.75;8.20;;;;;;;;;;4932341;29;20064;-85
2021/09/07 14:08:10;;;;;;;8.90;6.50;;;;;;;;;;4933017;29;20016;-87
2021/09/07 14:10:36;;;;;;;11.90;7.93;;;;;;;;;;4931942;29;20016;-84
2021/09/07 14:13:02;;;;;;;11.30;7.22;;;;;;;;;;4930787;29;20020;-84
2021/09/07 14:15:27;;;;;;;10.50;7.38;;;;;;;;;;4932454;29;20024;-85
2021/09/07 14:17:52;;;;;;;12.98;7.45;;;;;;;;;;4925649;29;20024;-83
2021/09/07 14:20:18;;;;;;;8.88;7.15;;;;;;;;;;4928666;29;20483;-85
2021/09/07 14:22:43;;;;;;;11.43;7.15;;;;;;;;;;4929559;29;20023;-83
2021/09/07 14:25:12;;;;;;;11.63;9.70;;;;;;;;;;4931926;29;20020;-84
2021/09/07 14:27:38;;;;;;;25.38;22.40;;;;;;;;;;4931523;29;20023;-84
2021/09/07 14:30:04;;;;;;;12.45;8.27;;;;;;;;;;4928683;29;20023;-83
2021/09/07 14:32:29;;;;;;;8.95;7.38;;;;;;;;;;4925856;29;20019;-84
2021/09/07 14:34:54;;;;;;;10.45;7.47;;;;;;;;;;4928811;29;20106;-86